sensor_id;sensor_type;location;lat;lon;timestamp;pressure;altitude;pressure_sealevel;temperature;humidity
70437;BME280;57877;39.750;-104.894;2024-03-07T00:02:25;82759.86;;;14.33;11.09
70437;BME280;57877;39.750;-104.894;2024-03-07T00:04:50;82762.96;;;13.82;11.26
70437;BME280;57877;39.750;-104.894;2024-03-07T00:07:15;82766.54;;;14.01;11.23
70437;BME280;57877;39.750;-104.894;2024-03-07T00:09:40;82769.88;;;13.55;11.42
70437;BME280;57877;39.750;-104.894;2024-03-07T00:12:06;82773.47;;;13.74;11.36
70437;BME280;57877;39.750;-104.894;2024-03-07T00:14:32;82776.84;;;13.23;11.47
70437;BME280;57877;39.750;-104.894;2024-03-07T00:16:56;82777.67;;;13.40;11.73
70437;BME280;57877;39.750;-104.894;2024-03-07T00:19:21;82781.04;;;13.34;11.65
70437;BME280;57877;39.750;-104.894;2024-03-07T00:21:46;82785.09;;;13.90;11.34
70437;BME280;57877;39.750;-104.894;2024-03-07T00:24:11;82787.86;;;13.42;11.73
70437;BME280;57877;39.750;-104.894;2024-03-07T00:26:36;82789.12;;;13.21;12.10
70437;BME280;57877;39.750;-104.894;2024-03-07T00:29:01;82786.34;;;13.44;11.59
70437;BME280;57877;39.750;-104.894;2024-03-07T00:31:26;82788.29;;;13.19;11.65
70437;BME280;57877;39.750;-104.894;2024-03-07T00:33:51;82785.89;;;13.04;11.60
70437;BME280;57877;39.750;-104.894;2024-03-07T00:36:16;82786.49;;;12.80;11.81
70437;BME280;57877;39.750;-104.894;2024-03-07T00:38:41;82789.94;;;12.78;11.73
70437;BME280;57877;39.750;-104.894;2024-03-07T00:41:06;82792.48;;;11.86;12.28
70437;BME280;57877;39.750;-104.894;2024-03-07T00:43:31;82796.59;;;11.94;12.53
70437;BME280;57877;39.750;-104.894;2024-03-07T00:45:56;82796.82;;;12.35;12.43
70437;BME280;57877;39.750;-104.894;2024-03-07T00:48:22;82800.90;;;12.64;11.98
70437;BME280;57877;39.750;-104.894;2024-03-07T00:50:48;82809.46;;;12.96;11.91
70437;BME280;57877;39.750;-104.894;2024-03-07T00:53:14;82810.74;;;12.55;12.10
70437;BME280;57877;39.750;-104.894;2024-03-07T00:55:39;82814.54;;;12.37;11.86
70437;BME280;57877;39.750;-104.894;2024-03-07T00:58:04;82817.99;;;12.69;11.89
70437;BME280;57877;39.750;-104.894;2024-03-07T01:00:29;82821.49;;;12.74;11.76
70437;BME280;57877;39.750;-104.894;2024-03-07T01:02:54;82822.49;;;13.45;11.43
70437;BME280;57877;39.750;-104.894;2024-03-07T01:05:20;82830.58;;;13.58;11.31
70437;BME280;57877;39.750;-104.894;2024-03-07T01:07:45;82833.11;;;13.23;11.48
70437;BME280;57877;39.750;-104.894;2024-03-07T01:10:10;82837.42;;;12.96;11.65
70437;BME280;57877;39.750;-104.894;2024-03-07T01:12:35;82837.75;;;13.53;11.45
70437;BME280;57877;39.750;-104.894;2024-03-07T01:15:00;82837.90;;;12.08;12.04
70437;BME280;57877;39.750;-104.894;2024-03-07T01:17:25;82840.48;;;12.70;11.78
70437;BME280;57877;39.750;-104.894;2024-03-07T01:19:50;82841.72;;;13.36;11.57
70437;BME280;57877;39.750;-104.894;2024-03-07T01:22:15;82842.79;;;13.36;11.50
70437;BME280;57877;39.750;-104.894;2024-03-07T01:24:40;82846.19;;;13.20;11.31
70437;BME280;57877;39.750;-104.894;2024-03-07T01:27:05;82853.23;;;13.46;11.24
70437;BME280;57877;39.750;-104.894;2024-03-07T01:29:30;82852.28;;;13.44;11.33
70437;BME280;57877;39.750;-104.894;2024-03-07T01:31:55;82854.31;;;13.10;11.29
70437;BME280;57877;39.750;-104.894;2024-03-07T01:34:20;82855.63;;;12.84;11.43
70437;BME280;57877;39.750;-104.894;2024-03-07T01:36:45;82852.55;;;12.56;11.82
70437;BME280;57877;39.750;-104.894;2024-03-07T01:39:10;82857.73;;;12.97;11.59
70437;BME280;57877;39.750;-104.894;2024-03-07T01:41:35;82859.37;;;12.83;11.76
70437;BME280;57877;39.750;-104.894;2024-03-07T01:44:01;82856.77;;;12.68;11.88
70437;BME280;57877;39.750;-104.894;2024-03-07T01:46:26;82860.85;;;12.44;12.08
70437;BME280;57877;39.750;-104.894;2024-03-07T01:48:51;82862.76;;;12.03;12.38
70437;BME280;57877;39.750;-104.894;2024-03-07T01:51:17;82861.73;;;12.78;12.18
70437;BME280;57877;39.750;-104.894;2024-03-07T01:53:44;82862.53;;;12.35;12.39
70437;BME280;57877;39.750;-104.894;2024-03-07T01:56:09;82865.64;;;12.21;12.43
70437;BME280;57877;39.750;-104.894;2024-03-07T01:58:36;82866.87;;;12.82;12.29
70437;BME280;57877;39.750;-104.894;2024-03-07T02:00:59;82870.00;;;12.31;12.56
70437;BME280;57877;39.750;-104.894;2024-03-07T02:03:25;82869.53;;;11.99;12.82
70437;BME280;57877;39.750;-104.894;2024-03-07T02:05:49;82869.46;;;12.18;12.81
70437;BME280;57877;39.750;-104.894;2024-03-07T02:08:14;82871.44;;;11.69;13.23
70437;BME280;57877;39.750;-104.894;2024-03-07T02:10:41;82872.45;;;12.00;13.09
70437;BME280;57877;39.750;-104.894;2024-03-07T02:13:06;82872.40;;;12.28;13.35
70437;BME280;57877;39.750;-104.894;2024-03-07T02:15:32;82874.99;;;10.59;14.37
70437;BME280;57877;39.750;-104.894;2024-03-07T02:17:59;82871.90;;;10.83;14.35
70437;BME280;57877;39.750;-104.894;2024-03-07T02:20:25;82877.02;;;10.41;14.75
70437;BME280;57877;39.750;-104.894;2024-03-07T02:22:50;82878.16;;;10.76;14.57
70437;BME280;57877;39.750;-104.894;2024-03-07T02:25:17;82883.46;;;10.78;14.99
70437;BME280;57877;39.750;-104.894;2024-03-07T02:27:42;82884.98;;;11.08;14.63
70437;BME280;57877;39.750;-104.894;2024-03-07T02:30:09;82887.20;;;10.02;15.37
70437;BME280;57877;39.750;-104.894;2024-03-07T02:32:34;82891.40;;;10.48;15.49
70437;BME280;57877;39.750;-104.894;2024-03-07T02:35:00;82888.98;;;9.15;16.92
70437;BME280;57877;39.750;-104.894;2024-03-07T02:37:26;82891.01;;;9.36;17.67
70437;BME280;57877;39.750;-104.894;2024-03-07T02:39:52;82895.12;;;9.75;17.41
70437;BME280;57877;39.750;-104.894;2024-03-07T02:42:17;82896.96;;;10.05;17.49
70437;BME280;57877;39.750;-104.894;2024-03-07T02:44:43;82901.68;;;10.27;16.96
70437;BME280;57877;39.750;-104.894;2024-03-07T02:47:09;82899.83;;;11.30;16.42
70437;BME280;57877;39.750;-104.894;2024-03-07T02:49:35;82900.42;;;10.80;16.49
70437;BME280;57877;39.750;-104.894;2024-03-07T02:52:01;82902.71;;;10.85;16.63
70437;BME280;57877;39.750;-104.894;2024-03-07T02:54:27;82905.34;;;10.39;16.75
70437;BME280;57877;39.750;-104.894;2024-03-07T02:56:53;82908.63;;;10.74;16.53
70437;BME280;57877;39.750;-104.894;2024-03-07T02:59:19;82910.68;;;10.95;16.43
70437;BME280;57877;39.750;-104.894;2024-03-07T03:01:46;82907.94;;;10.72;16.38
70437;BME280;57877;39.750;-104.894;2024-03-07T03:04:11;82907.83;;;11.25;16.28
70437;BME280;57877;39.750;-104.894;2024-03-07T03:06:37;82911.57;;;10.93;16.59
70437;BME280;57877;39.750;-104.894;2024-03-07T03:09:03;82910.77;;;10.76;16.63
70437;BME280;57877;39.750;-104.894;2024-03-07T03:11:29;82912.95;;;10.60;16.96
70437;BME280;57877;39.750;-104.894;2024-03-07T03:13:55;82916.72;;;10.45;17.12
70437;BME280;57877;39.750;-104.894;2024-03-07T03:16:21;82918.70;;;10.44;17.04
70437;BME280;57877;39.750;-104.894;2024-03-07T03:18:48;82920.61;;;9.71;17.66
70437;BME280;57877;39.750;-104.894;2024-03-07T03:21:13;82920.72;;;9.54;17.98
70437;BME280;57877;39.750;-104.894;2024-03-07T03:23:39;82920.64;;;9.88;17.99
70437;BME280;57877;39.750;-104.894;2024-03-07T03:26:05;82922.86;;;9.54;18.08
70437;BME280;57877;39.750;-104.894;2024-03-07T03:28:31;82920.80;;;10.13;17.62
70437;BME280;57877;39.750;-104.894;2024-03-07T03:30:57;82917.43;;;9.35;17.98
70437;BME280;57877;39.750;-104.894;2024-03-07T03:33:23;82917.06;;;9.72;17.91
70437;BME280;57877;39.750;-104.894;2024-03-07T03:35:49;82912.11;;;9.21;18.65
70437;BME280;57877;39.750;-104.894;2024-03-07T03:38:15;82913.60;;;9.43;19.03
70437;BME280;57877;39.750;-104.894;2024-03-07T03:40:41;82917.70;;;9.19;19.62
70437;BME280;57877;39.750;-104.894;2024-03-07T03:43:07;82916.64;;;8.98;19.53
70437;BME280;57877;39.750;-104.894;2024-03-07T03:45:33;82917.66;;;9.26;19.47
70437;BME280;57877;39.750;-104.894;2024-03-07T03:47:59;82919.12;;;8.80;19.70
70437;BME280;57877;39.750;-104.894;2024-03-07T03:50:24;82919.43;;;8.91;19.48
70437;BME280;57877;39.750;-104.894;2024-03-07T03:52:51;82917.20;;;8.99;19.83
70437;BME280;57877;39.750;-104.894;2024-03-07T03:55:16;82920.50;;;8.58;20.11
70437;BME280;57877;39.750;-104.894;2024-03-07T03:57:43;82921.89;;;8.27;20.55
70437;BME280;57877;39.750;-104.894;2024-03-07T04:00:10;82923.37;;;8.29;20.49
70437;BME280;57877;39.750;-104.894;2024-03-07T04:02:34;82923.16;;;8.75;20.24
70437;BME280;57877;39.750;-104.894;2024-03-07T04:04:59;82924.32;;;9.20;19.65
70437;BME280;57877;39.750;-104.894;2024-03-07T04:07:24;82921.73;;;9.63;19.15
70437;BME280;57877;39.750;-104.894;2024-03-07T04:09:49;82926.54;;;9.09;19.63
70437;BME280;57877;39.750;-104.894;2024-03-07T04:12:14;82926.61;;;9.79;19.15
70437;BME280;57877;39.750;-104.894;2024-03-07T04:14:41;82929.60;;;9.39;19.54
70437;BME280;57877;39.750;-104.894;2024-03-07T04:17:04;82932.96;;;9.49;19.50
70437;BME280;57877;39.750;-104.894;2024-03-07T04:19:29;82935.76;;;9.41;19.83
70437;BME280;57877;39.750;-104.894;2024-03-07T04:21:54;82936.55;;;9.11;19.95
70437;BME280;57877;39.750;-104.894;2024-03-07T04:24:19;82938.97;;;9.66;19.63
70437;BME280;57877;39.750;-104.894;2024-03-07T04:26:44;82942.27;;;10.09;19.62
70437;BME280;57877;39.750;-104.894;2024-03-07T04:29:10;82941.02;;;9.60;20.62
70437;BME280;57877;39.750;-104.894;2024-03-07T04:31:35;82943.11;;;9.55;20.69
70437;BME280;57877;39.750;-104.894;2024-03-07T04:34:00;82945.24;;;9.70;20.69
70437;BME280;57877;39.750;-104.894;2024-03-07T04:36:25;82950.38;;;9.81;20.92
70437;BME280;57877;39.750;-104.894;2024-03-07T04:38:50;82955.13;;;9.79;21.32
70437;BME280;57877;39.750;-104.894;2024-03-07T04:41:15;82953.16;;;9.78;21.24
70437;BME280;57877;39.750;-104.894;2024-03-07T04:43:40;82957.07;;;10.27;21.08
70437;BME280;57877;39.750;-104.894;2024-03-07T04:46:05;82957.92;;;9.67;21.66
70437;BME280;57877;39.750;-104.894;2024-03-07T04:48:30;82957.49;;;9.53;21.87
70437;BME280;57877;39.750;-104.894;2024-03-07T04:50:55;82959.78;;;9.19;22.29
70437;BME280;57877;39.750;-104.894;2024-03-07T04:53:20;82962.34;;;9.60;22.24
70437;BME280;57877;39.750;-104.894;2024-03-07T04:55:45;82964.05;;;9.94;21.84
70437;BME280;57877;39.750;-104.894;2024-03-07T04:58:11;82966.27;;;10.04;21.80
70437;BME280;57877;39.750;-104.894;2024-03-07T05:00:37;82965.24;;;9.22;22.73
70437;BME280;57877;39.750;-104.894;2024-03-07T05:03:02;82967.23;;;9.33;22.45
70437;BME280;57877;39.750;-104.894;2024-03-07T05:05:27;82971.93;;;9.78;22.09
70437;BME280;57877;39.750;-104.894;2024-03-07T05:07:52;82976.46;;;10.28;21.61
70437;BME280;57877;39.750;-104.894;2024-03-07T05:10:18;82982.25;;;10.21;21.65
70437;BME280;57877;39.750;-104.894;2024-03-07T05:12:43;82984.61;;;9.40;21.93
70437;BME280;57877;39.750;-104.894;2024-03-07T05:15:09;82987.50;;;9.10;22.21
70437;BME280;57877;39.750;-104.894;2024-03-07T05:17:33;82991.31;;;8.95;22.50
70437;BME280;57877;39.750;-104.894;2024-03-07T05:19:58;82990.72;;;8.57;23.12
70437;BME280;57877;39.750;-104.894;2024-03-07T05:22:24;82993.39;;;8.50;23.20
70437;BME280;57877;39.750;-104.894;2024-03-07T05:24:49;82990.99;;;7.51;24.17
70437;BME280;57877;39.750;-104.894;2024-03-07T05:27:15;82990.17;;;8.38;23.57
70437;BME280;57877;39.750;-104.894;2024-03-07T05:29:40;82991.51;;;7.81;23.82
70437;BME280;57877;39.750;-104.894;2024-03-07T05:34:30;82994.68;;;9.11;22.68
70437;BME280;57877;39.750;-104.894;2024-03-07T05:36:55;82996.89;;;8.77;22.87
70437;BME280;57877;39.750;-104.894;2024-03-07T05:39:21;82994.25;;;9.25;22.56
70437;BME280;57877;39.750;-104.894;2024-03-07T05:41:46;82998.39;;;9.10;22.74
70437;BME280;57877;39.750;-104.894;2024-03-07T05:44:11;82998.76;;;9.72;22.46
70437;BME280;57877;39.750;-104.894;2024-03-07T05:46:37;82997.60;;;9.04;22.59
70437;BME280;57877;39.750;-104.894;2024-03-07T05:49:01;83002.53;;;9.40;22.37
70437;BME280;57877;39.750;-104.894;2024-03-07T05:51:26;83004.39;;;9.09;22.82
70437;BME280;57877;39.750;-104.894;2024-03-07T05:53:51;83007.16;;;8.26;23.34
70437;BME280;57877;39.750;-104.894;2024-03-07T05:56:16;83010.36;;;8.45;23.66
70437;BME280;57877;39.750;-104.894;2024-03-07T05:58:41;83016.41;;;8.78;23.44
70437;BME280;57877;39.750;-104.894;2024-03-07T06:01:06;83017.92;;;8.92;23.49
70437;BME280;57877;39.750;-104.894;2024-03-07T06:03:31;83018.25;;;7.93;24.19
70437;BME280;57877;39.750;-104.894;2024-03-07T06:05:57;83021.07;;;8.92;23.64
70437;BME280;57877;39.750;-104.894;2024-03-07T06:08:22;83022.80;;;7.78;24.76
70437;BME280;57877;39.750;-104.894;2024-03-07T06:10:48;83028.72;;;6.51;26.15
70437;BME280;57877;39.750;-104.894;2024-03-07T06:13:13;83033.05;;;7.02;25.87
70437;BME280;57877;39.750;-104.894;2024-03-07T06:15:38;83031.52;;;6.50;26.99
70437;BME280;57877;39.750;-104.894;2024-03-07T06:18:02;83033.97;;;6.89;27.16
70437;BME280;57877;39.750;-104.894;2024-03-07T06:20:27;83032.74;;;7.22;26.82
70437;BME280;57877;39.750;-104.894;2024-03-07T06:22:52;83035.46;;;7.68;26.83
70437;BME280;57877;39.750;-104.894;2024-03-07T06:25:22;83037.77;;;7.60;26.41
70437;BME280;57877;39.750;-104.894;2024-03-07T06:27:42;83036.94;;;6.87;27.10
70437;BME280;57877;39.750;-104.894;2024-03-07T06:30:08;83036.15;;;6.66;27.55
70437;BME280;57877;39.750;-104.894;2024-03-07T06:32:32;83037.36;;;7.37;26.87
70437;BME280;57877;39.750;-104.894;2024-03-07T06:34:58;83039.19;;;7.58;26.58
70437;BME280;57877;39.750;-104.894;2024-03-07T06:37:22;83041.07;;;7.27;26.93
70437;BME280;57877;39.750;-104.894;2024-03-07T06:39:48;83041.75;;;7.56;26.85
70437;BME280;57877;39.750;-104.894;2024-03-07T06:42:13;83040.14;;;7.33;26.82
70437;BME280;57877;39.750;-104.894;2024-03-07T06:44:38;83038.75;;;6.75;27.67
70437;BME280;57877;39.750;-104.894;2024-03-07T06:47:03;83040.98;;;7.22;27.65
70437;BME280;57877;39.750;-104.894;2024-03-07T06:49:28;83039.95;;;7.12;28.02
70437;BME280;57877;39.750;-104.894;2024-03-07T06:51:53;83039.27;;;8.02;27.00
70437;BME280;57877;39.750;-104.894;2024-03-07T06:54:18;83037.70;;;7.92;26.83
70437;BME280;57877;39.750;-104.894;2024-03-07T06:56:43;83041.24;;;7.62;27.60
70437;BME280;57877;39.750;-104.894;2024-03-07T06:59:08;83039.83;;;7.34;27.70
70437;BME280;57877;39.750;-104.894;2024-03-07T07:01:33;83039.51;;;5.94;29.00
70437;BME280;57877;39.750;-104.894;2024-03-07T07:03:58;83038.73;;;7.64;28.10
70437;BME280;57877;39.750;-104.894;2024-03-07T07:06:23;83037.69;;;6.89;29.42
70437;BME280;57877;39.750;-104.894;2024-03-07T07:08:48;83042.92;;;6.10;31.01
70437;BME280;57877;39.750;-104.894;2024-03-07T07:11:13;83040.74;;;5.65;31.66
70437;BME280;57877;39.750;-104.894;2024-03-07T07:13:38;83044.24;;;6.05;31.91
70437;BME280;57877;39.750;-104.894;2024-03-07T07:16:04;83045.45;;;5.66;32.06
70437;BME280;57877;39.750;-104.894;2024-03-07T07:18:29;83046.06;;;5.21;33.32
70437;BME280;57877;39.750;-104.894;2024-03-07T07:20:53;83048.95;;;4.78;33.93
70437;BME280;57877;39.750;-104.894;2024-03-07T07:23:19;83053.47;;;6.41;32.36
70437;BME280;57877;39.750;-104.894;2024-03-07T07:25:43;83054.36;;;5.48;34.10
70437;BME280;57877;39.750;-104.894;2024-03-07T07:28:08;83058.36;;;5.33;35.19
70437;BME280;57877;39.750;-104.894;2024-03-07T07:30:34;83059.52;;;4.33;38.02
70437;BME280;57877;39.750;-104.894;2024-03-07T07:32:59;83058.70;;;4.75;37.74
70437;BME280;57877;39.750;-104.894;2024-03-07T07:35:24;83062.21;;;5.77;36.55
70437;BME280;57877;39.750;-104.894;2024-03-07T07:37:51;83064.98;;;6.19;35.00
70437;BME280;57877;39.750;-104.894;2024-03-07T07:40:17;83062.13;;;5.68;36.28
70437;BME280;57877;39.750;-104.894;2024-03-07T07:42:39;83063.28;;;6.46;35.16
70437;BME280;57877;39.750;-104.894;2024-03-07T07:45:06;83066.07;;;6.05;35.74
70437;BME280;57877;39.750;-104.894;2024-03-07T07:47:29;83068.86;;;5.72;36.10
70437;BME280;57877;39.750;-104.894;2024-03-07T07:49:54;83070.86;;;6.09;35.52
70437;BME280;57877;39.750;-104.894;2024-03-07T07:52:19;83068.76;;;6.05;36.29
70437;BME280;57877;39.750;-104.894;2024-03-07T07:54:44;83072.55;;;6.13;36.03
70437;BME280;57877;39.750;-104.894;2024-03-07T07:57:09;83069.24;;;5.84;36.66
70437;BME280;57877;39.750;-104.894;2024-03-07T07:59:34;83074.76;;;5.81;35.96
70437;BME280;57877;39.750;-104.894;2024-03-07T08:01:59;83073.75;;;6.12;35.68
70437;BME280;57877;39.750;-104.894;2024-03-07T08:04:24;83070.74;;;5.69;36.78
70437;BME280;57877;39.750;-104.894;2024-03-07T08:06:49;83069.35;;;5.78;36.71
70437;BME280;57877;39.750;-104.894;2024-03-07T08:09:15;83071.21;;;5.90;36.53
70437;BME280;57877;39.750;-104.894;2024-03-07T08:11:39;83070.46;;;5.52;37.20
70437;BME280;57877;39.750;-104.894;2024-03-07T08:14:05;83071.51;;;6.38;35.93
70437;BME280;57877;39.750;-104.894;2024-03-07T08:16:30;83070.17;;;6.41;35.47
70437;BME280;57877;39.750;-104.894;2024-03-07T08:18:55;83070.82;;;6.06;35.26
70437;BME280;57877;39.750;-104.894;2024-03-07T08:21:20;83071.56;;;6.28;35.39
70437;BME280;57877;39.750;-104.894;2024-03-07T08:23:45;83072.48;;;5.96;35.58
70437;BME280;57877;39.750;-104.894;2024-03-07T08:26:10;83072.41;;;6.73;35.02
70437;BME280;57877;39.750;-104.894;2024-03-07T08:28:35;83071.62;;;5.74;36.00
70437;BME280;57877;39.750;-104.894;2024-03-07T08:31:00;83070.37;;;6.69;34.71
70437;BME280;57877;39.750;-104.894;2024-03-07T08:33:25;83069.62;;;6.83;34.07
70437;BME280;57877;39.750;-104.894;2024-03-07T08:35:50;83064.79;;;7.30;33.52
70437;BME280;57877;39.750;-104.894;2024-03-07T08:38:16;83065.43;;;7.48;32.96
70437;BME280;57877;39.750;-104.894;2024-03-07T08:40:42;83068.09;;;7.19;32.98
70437;BME280;57877;39.750;-104.894;2024-03-07T08:43:07;83067.95;;;7.13;32.84
70437;BME280;57877;39.750;-104.894;2024-03-07T08:45:32;83066.03;;;7.70;31.81
70437;BME280;57877;39.750;-104.894;2024-03-07T08:47:58;83061.40;;;7.96;31.44
70437;BME280;57877;39.750;-104.894;2024-03-07T08:50:23;83059.58;;;8.31;31.08
70437;BME280;57877;39.750;-104.894;2024-03-07T08:52:49;83057.34;;;7.87;31.25
70437;BME280;57877;39.750;-104.894;2024-03-07T08:55:14;83057.00;;;8.17;31.00
70437;BME280;57877;39.750;-104.894;2024-03-07T08:57:38;83055.27;;;7.61;31.81
70437;BME280;57877;39.750;-104.894;2024-03-07T09:00:03;83054.03;;;7.90;32.08
70437;BME280;57877;39.750;-104.894;2024-03-07T09:02:27;83050.29;;;7.06;32.19
70437;BME280;57877;39.750;-104.894;2024-03-07T09:04:53;83040.93;;;7.89;31.49
70437;BME280;57877;39.750;-104.894;2024-03-07T09:07:18;83039.13;;;7.82;31.59
70437;BME280;57877;39.750;-104.894;2024-03-07T09:09:43;83035.08;;;7.66;31.90
70437;BME280;57877;39.750;-104.894;2024-03-07T09:12:08;83029.71;;;7.60;31.84
70437;BME280;57877;39.750;-104.894;2024-03-07T09:14:33;83032.24;;;7.29;32.34
70437;BME280;57877;39.750;-104.894;2024-03-07T09:16:58;83024.24;;;7.34;32.29
70437;BME280;57877;39.750;-104.894;2024-03-07T09:19:23;83020.39;;;7.65;32.04
70437;BME280;57877;39.750;-104.894;2024-03-07T09:21:48;83023.23;;;6.98;32.71
70437;BME280;57877;39.750;-104.894;2024-03-07T09:24:13;83018.48;;;7.25;32.47
70437;BME280;57877;39.750;-104.894;2024-03-07T09:26:38;83014.33;;;7.63;32.13
70437;BME280;57877;39.750;-104.894;2024-03-07T09:29:04;83011.09;;;7.10;32.44
70437;BME280;57877;39.750;-104.894;2024-03-07T09:31:29;83009.35;;;6.73;33.34
70437;BME280;57877;39.750;-104.894;2024-03-07T09:33:54;83006.15;;;6.79;32.90
70437;BME280;57877;39.750;-104.894;2024-03-07T09:36:20;83004.65;;;6.82;33.32
70437;BME280;57877;39.750;-104.894;2024-03-07T09:38:45;83000.83;;;6.67;33.47
70437;BME280;57877;39.750;-104.894;2024-03-07T09:41:11;83001.53;;;6.14;34.19
70437;BME280;57877;39.750;-104.894;2024-03-07T09:43:37;83000.08;;;6.75;33.31
70437;BME280;57877;39.750;-104.894;2024-03-07T09:46:03;82996.89;;;6.59;33.39
70437;BME280;57877;39.750;-104.894;2024-03-07T09:48:26;82994.03;;;5.91;34.22
70437;BME280;57877;39.750;-104.894;2024-03-07T09:50:53;82992.08;;;6.38;33.98
70437;BME280;57877;39.750;-104.894;2024-03-07T09:53:17;82988.75;;;6.55;33.77
70437;BME280;57877;39.750;-104.894;2024-03-07T09:55:42;82988.60;;;6.47;33.40
70437;BME280;57877;39.750;-104.894;2024-03-07T09:58:07;82987.72;;;6.45;33.66
70437;BME280;57877;39.750;-104.894;2024-03-07T10:00:31;82986.72;;;6.53;33.73
70437;BME280;57877;39.750;-104.894;2024-03-07T10:02:58;82984.19;;;6.78;33.44
70437;BME280;57877;39.750;-104.894;2024-03-07T10:05:23;82981.91;;;6.63;33.35
70437;BME280;57877;39.750;-104.894;2024-03-07T10:07:46;82981.18;;;6.34;33.74
70437;BME280;57877;39.750;-104.894;2024-03-07T10:10:12;82981.60;;;6.51;33.96
70437;BME280;57877;39.750;-104.894;2024-03-07T10:12:37;82978.79;;;6.40;33.69
70437;BME280;57877;39.750;-104.894;2024-03-07T10:15:04;82978.26;;;6.71;33.29
70437;BME280;57877;39.750;-104.894;2024-03-07T10:17:28;82977.19;;;7.06;33.02
70437;BME280;57877;39.750;-104.894;2024-03-07T10:19:53;82978.81;;;7.04;33.01
70437;BME280;57877;39.750;-104.894;2024-03-07T10:22:18;82979.54;;;5.91;34.66
70437;BME280;57877;39.750;-104.894;2024-03-07T10:24:50;82980.32;;;5.10;36.08
70437;BME280;57877;39.750;-104.894;2024-03-07T10:27:08;82982.51;;;5.27;35.44
70437;BME280;57877;39.750;-104.894;2024-03-07T10:29:33;82982.99;;;5.88;35.00
70437;BME280;57877;39.750;-104.894;2024-03-07T10:31:58;82981.42;;;6.35;34.30
70437;BME280;57877;39.750;-104.894;2024-03-07T10:34:23;82979.54;;;5.85;34.40
70437;BME280;57877;39.750;-104.894;2024-03-07T10:36:48;82981.87;;;5.66;35.26
70437;BME280;57877;39.750;-104.894;2024-03-07T10:39:13;82980.97;;;6.22;34.23
70437;BME280;57877;39.750;-104.894;2024-03-07T10:41:45;82984.75;;;6.16;34.95
70437;BME280;57877;39.750;-104.894;2024-03-07T10:44:04;82981.38;;;6.55;34.77
70437;BME280;57877;39.750;-104.894;2024-03-07T10:46:29;82982.98;;;5.69;36.34
70437;BME280;57877;39.750;-104.894;2024-03-07T10:48:55;82982.88;;;6.21;35.25
70437;BME280;57877;39.750;-104.894;2024-03-07T10:51:24;82986.30;;;6.33;35.00
70437;BME280;57877;39.750;-104.894;2024-03-07T10:53:52;82984.96;;;6.30;34.59
70437;BME280;57877;39.750;-104.894;2024-03-07T10:56:21;82987.56;;;7.06;33.47
70437;BME280;57877;39.750;-104.894;2024-03-07T10:58:42;82987.26;;;5.89;34.51
70437;BME280;57877;39.750;-104.894;2024-03-07T11:01:01;82987.08;;;5.97;34.37
70437;BME280;57877;39.750;-104.894;2024-03-07T11:03:24;82982.26;;;5.85;34.54
70437;BME280;57877;39.750;-104.894;2024-03-07T11:05:50;82980.45;;;5.71;35.00
70437;BME280;57877;39.750;-104.894;2024-03-07T11:08:14;82979.42;;;5.91;34.11
70437;BME280;57877;39.750;-104.894;2024-03-07T11:10:39;82979.19;;;5.38;35.67
70437;BME280;57877;39.750;-104.894;2024-03-07T11:13:06;82976.84;;;5.76;35.05
70437;BME280;57877;39.750;-104.894;2024-03-07T11:15:29;82977.59;;;5.00;35.77
70437;BME280;57877;39.750;-104.894;2024-03-07T11:17:55;82978.15;;;5.25;35.73
70437;BME280;57877;39.750;-104.894;2024-03-07T11:20:20;82975.93;;;5.63;35.45
70437;BME280;57877;39.750;-104.894;2024-03-07T11:22:45;82975.48;;;5.45;35.68
70437;BME280;57877;39.750;-104.894;2024-03-07T11:25:10;82976.77;;;4.92;35.61
70437;BME280;57877;39.750;-104.894;2024-03-07T11:27:37;82975.64;;;5.42;35.70
70437;BME280;57877;39.750;-104.894;2024-03-07T11:30:05;82973.53;;;5.69;34.91
70437;BME280;57877;39.750;-104.894;2024-03-07T11:32:25;82969.97;;;5.06;35.19
70437;BME280;57877;39.750;-104.894;2024-03-07T11:34:50;82971.18;;;4.92;35.94
70437;BME280;57877;39.750;-104.894;2024-03-07T11:37:19;82973.73;;;4.99;35.92
70437;BME280;57877;39.750;-104.894;2024-03-07T11:39:40;82974.72;;;4.99;36.10
70437;BME280;57877;39.750;-104.894;2024-03-07T11:42:05;82972.79;;;4.87;36.59
70437;BME280;57877;39.750;-104.894;2024-03-07T11:44:30;82973.73;;;4.40;36.63
70437;BME280;57877;39.750;-104.894;2024-03-07T11:46:55;82973.29;;;3.96;37.31
70437;BME280;57877;39.750;-104.894;2024-03-07T11:49:20;82971.19;;;4.37;37.26
70437;BME280;57877;39.750;-104.894;2024-03-07T11:51:46;82970.40;;;4.25;36.91
70437;BME280;57877;39.750;-104.894;2024-03-07T11:54:10;82969.46;;;4.29;37.41
70437;BME280;57877;39.750;-104.894;2024-03-07T11:56:36;82971.11;;;4.27;37.75
70437;BME280;57877;39.750;-104.894;2024-03-07T11:59:00;82972.24;;;3.62;39.61
70437;BME280;57877;39.750;-104.894;2024-03-07T12:01:27;82972.78;;;3.85;39.94
70437;BME280;57877;39.750;-104.894;2024-03-07T12:03:51;82971.04;;;3.84;39.26
70437;BME280;57877;39.750;-104.894;2024-03-07T12:06:16;82975.18;;;3.64;40.69
70437;BME280;57877;39.750;-104.894;2024-03-07T12:08:41;82972.56;;;3.37;40.95
70437;BME280;57877;39.750;-104.894;2024-03-07T12:11:06;82973.98;;;3.15;40.84
70437;BME280;57877;39.750;-104.894;2024-03-07T12:13:32;82973.26;;;3.30;41.32
70437;BME280;57877;39.750;-104.894;2024-03-07T12:15:56;82976.93;;;3.24;41.14
70437;BME280;57877;39.750;-104.894;2024-03-07T12:18:22;82982.03;;;3.19;41.57
70437;BME280;57877;39.750;-104.894;2024-03-07T12:20:46;82985.03;;;3.52;40.61
70437;BME280;57877;39.750;-104.894;2024-03-07T12:23:11;82986.46;;;3.15;41.09
70437;BME280;57877;39.750;-104.894;2024-03-07T12:25:36;82986.03;;;3.31;40.73
70437;BME280;57877;39.750;-104.894;2024-03-07T12:28:04;82986.39;;;2.62;41.52
70437;BME280;57877;39.750;-104.894;2024-03-07T12:30:26;82988.68;;;2.90;42.28